Cold Lake, Canada
Current Conditions -  °F | °C
As of 6:00 PM on Friday 24 Oct 2014 (Local Time) from CYOD Reporting Station
Scattered Clouds Scattered Clouds  
Wind Chill: 40°   Ceiling: Unl
Heat Index: 46°   Visibility: 15mi
Dew Point: 27°   Wind: 14mph
Humidity: 46%   Direction: 290°WNW
Pressure: 29.83"   Gusts: NA
Location:  54.47°N, 110.17°W
Report Text: CYOD 250000Z 29012KT 15SM SCT060 08/M03 A2983 RMK SC3 SLP121
Loading
Personal Weather Stations






























Interactive Weather Map
Tropical Storm Tracking
New forecast layout! Learn more

10-Day Weather Forecast

Advertisements
Track Severe Weather on mobile